DTL118 WIII-WIPP
Flight info
| Callsign | DTL118 |
|---|---|
| Flight time | 0h 43m |
| Altitude | 34000 |
| Route | DOLTA W12 GUSKO |
| Aircraft | A320/M-SDE3FGHIRWY/LB1 |
Departure
| Time | 2026-05-09 02:32 |
|---|---|
| Airport | Soekarno-Hatta International Airport (WIII) |
Arrival
| Time | 2026-05-09 03:16 |
|---|---|
| Airport | Sultan Mahmud Badaruddin II Airport (WIPP) |
| Time | Latitude | Longitude | Altitude | Speed | Heading |
|---|---|---|---|---|---|
| 2026-05-09 02:10 | -6.11484 | 106.66536 | 38 ft | 0 kts | 337° |
| 2026-05-09 02:23 | -6.11492 | 106.66539 | 38 ft | 2 kts | 337° |
| 2026-05-09 02:23 | -6.11507 | 106.66546 | 34 ft | 2 kts | 337° |
| 2026-05-09 02:24 | -6.11523 | 106.66553 | 37 ft | 2 kts | 337° |
| 2026-05-09 02:24 | -6.11539 | 106.66559 | 37 ft | 2 kts | 337° |
| 2026-05-09 02:24 | -6.11555 | 106.66566 | 37 ft | 2 kts | 337° |
| 2026-05-09 02:24 | -6.11570 | 106.66574 | 35 ft | 3 kts | 308° |
| 2026-05-09 02:25 | -6.11578 | 106.66590 | 33 ft | 2 kts | 272° |
| 2026-05-09 02:25 | -6.11576 | 106.66605 | 38 ft | 1 kts | 251° |
| 2026-05-09 02:26 | -6.11577 | 106.66604 | 38 ft | 1 kts | 251° |
| 2026-05-09 02:27 | -6.11582 | 106.66592 | 33 ft | 3 kts | 249° |
| 2026-05-09 02:27 | -6.11593 | 106.66563 | 38 ft | 6 kts | 246° |
| 2026-05-09 02:27 | -6.11613 | 106.66518 | 35 ft | 8 kts | 246° |
| 2026-05-09 02:27 | -6.11639 | 106.66456 | 38 ft | 11 kts | 246° |
| 2026-05-09 02:28 | -6.11629 | 106.66386 | 37 ft | 11 kts | 338° |
| 2026-05-09 02:28 | -6.11548 | 106.66367 | 38 ft | 13 kts | 342° |
| 2026-05-09 02:28 | -6.11458 | 106.66332 | 36 ft | 15 kts | 338° |
| 2026-05-09 02:28 | -6.11365 | 106.66296 | 38 ft | 11 kts | 346° |
| 2026-05-09 02:29 | -6.11307 | 106.66342 | 38 ft | 13 kts | 68° |
| 2026-05-09 02:29 | -6.11270 | 106.66435 | 38 ft | 16 kts | 68° |
| 2026-05-09 02:29 | -6.11225 | 106.66548 | 37 ft | 19 kts | 68° |
| 2026-05-09 02:29 | -6.11172 | 106.66679 | 37 ft | 21 kts | 68° |
| 2026-05-09 02:30 | -6.11123 | 106.66802 | 37 ft | 19 kts | 68° |
| 2026-05-09 02:30 | -6.11081 | 106.66908 | 37 ft | 12 kts | 67° |
| 2026-05-09 02:30 | -6.11064 | 106.66948 | 37 ft | 6 kts | 67° |
| 2026-05-09 02:30 | -6.11039 | 106.66983 | 37 ft | 5 kts | 359° |
| 2026-05-09 02:31 | -6.10992 | 106.66967 | 37 ft | 9 kts | 336° |
| 2026-05-09 02:31 | -6.10938 | 106.66923 | 36 ft | 12 kts | 300° |
| 2026-05-09 02:31 | -6.10926 | 106.66830 | 35 ft | 15 kts | 267° |
| 2026-05-09 02:31 | -6.10998 | 106.66632 | 36 ft | 60 kts | 248° |
| 2026-05-09 02:32 | -6.11241 | 106.66021 | 36 ft | 125 kts | 248° |
| 2026-05-09 02:32 | -6.11625 | 106.65046 | 84 ft | 169 kts | 248° |
| 2026-05-09 02:32 | -6.12047 | 106.63965 | 722 ft | 167 kts | 248° |
| 2026-05-09 02:32 | -6.12504 | 106.62805 | 961 ft | 191 kts | 248° |
| 2026-05-09 02:33 | -6.12843 | 106.61441 | 1234 ft | 215 kts | 274° |
| 2026-05-09 02:33 | -6.12490 | 106.59898 | 1620 ft | 240 kts | 289° |
| 2026-05-09 02:33 | -6.11870 | 106.58280 | 2106 ft | 262 kts | 293° |
| 2026-05-09 02:33 | -6.11161 | 106.56594 | 2960 ft | 270 kts | 294° |
| 2026-05-09 02:34 | -6.10409 | 106.54789 | 3932 ft | 274 kts | 293° |
| 2026-05-09 02:34 | -6.09702 | 106.53025 | 4876 ft | 278 kts | 292° |
| 2026-05-09 02:34 | -6.08988 | 106.51180 | 5806 ft | 282 kts | 291° |
| 2026-05-09 02:34 | -6.08154 | 106.49419 | 6657 ft | 285 kts | 304° |
| 2026-05-09 02:35 | -6.06872 | 106.47889 | 7497 ft | 288 kts | 320° |
| 2026-05-09 02:35 | -6.05236 | 106.46723 | 8342 ft | 290 kts | 330° |
| 2026-05-09 02:35 | -6.03506 | 106.45653 | 9205 ft | 293 kts | 329° |
| 2026-05-09 02:35 | -6.01759 | 106.44568 | 10029 ft | 297 kts | 329° |
| 2026-05-09 02:36 | -5.99946 | 106.43436 | 10389 ft | 318 kts | 329° |
| 2026-05-09 02:36 | -5.98001 | 106.42220 | 10675 ft | 338 kts | 329° |
| 2026-05-09 02:36 | -5.95976 | 106.40951 | 11264 ft | 347 kts | 329° |
| 2026-05-09 02:36 | -5.93908 | 106.39651 | 11961 ft | 352 kts | 329° |
| 2026-05-09 02:37 | -5.91821 | 106.38339 | 12679 ft | 356 kts | 329° |
| 2026-05-09 02:37 | -5.89706 | 106.37011 | 13386 ft | 361 kts | 329° |
| 2026-05-09 02:37 | -5.87562 | 106.35666 | 14049 ft | 365 kts | 329° |
| 2026-05-09 02:37 | -5.85386 | 106.34302 | 14664 ft | 370 kts | 329° |
| 2026-05-09 02:38 | -5.83193 | 106.32927 | 15278 ft | 374 kts | 328° |
| 2026-05-09 02:38 | -5.80973 | 106.31537 | 15885 ft | 378 kts | 328° |
| 2026-05-09 02:38 | -5.78758 | 106.30151 | 16488 ft | 382 kts | 328° |
| 2026-05-09 02:38 | -5.76485 | 106.28730 | 17096 ft | 386 kts | 328° |
| 2026-05-09 02:39 | -5.74186 | 106.27293 | 17700 ft | 391 kts | 328° |
| 2026-05-09 02:39 | -5.71848 | 106.25875 | 18268 ft | 395 kts | 330° |
| 2026-05-09 02:39 | -5.69447 | 106.24497 | 18804 ft | 398 kts | 331° |
| 2026-05-09 02:39 | -5.67013 | 106.23141 | 19344 ft | 402 kts | 331° |
| 2026-05-09 02:40 | -5.64551 | 106.21783 | 19906 ft | 405 kts | 331° |
| 2026-05-09 02:40 | -5.62071 | 106.20412 | 20473 ft | 408 kts | 331° |
| 2026-05-09 02:40 | -5.59572 | 106.19021 | 21052 ft | 412 kts | 330° |
| 2026-05-09 02:40 | -5.57062 | 106.17614 | 21641 ft | 415 kts | 330° |
| 2026-05-09 02:41 | -5.54557 | 106.16203 | 22222 ft | 419 kts | 330° |
| 2026-05-09 02:41 | -5.52009 | 106.14765 | 22803 ft | 422 kts | 330° |
| 2026-05-09 02:41 | -5.49442 | 106.13311 | 23391 ft | 426 kts | 330° |
| 2026-05-09 02:41 | -5.46855 | 106.11843 | 23875 ft | 429 kts | 330° |
| 2026-05-09 02:42 | -5.44246 | 106.10363 | 24356 ft | 432 kts | 330° |
| 2026-05-09 02:42 | -5.41614 | 106.08875 | 24827 ft | 435 kts | 330° |
| 2026-05-09 02:42 | -5.38963 | 106.07383 | 25319 ft | 438 kts | 330° |
| 2026-05-09 02:42 | -5.36301 | 106.05883 | 25784 ft | 441 kts | 330° |
| 2026-05-09 02:43 | -5.33618 | 106.04371 | 26260 ft | 444 kts | 330° |
| 2026-05-09 02:43 | -5.30911 | 106.02846 | 26719 ft | 447 kts | 331° |
| 2026-05-09 02:43 | -5.28193 | 106.01313 | 27160 ft | 450 kts | 331° |
| 2026-05-09 02:43 | -5.25455 | 105.99768 | 27592 ft | 452 kts | 331° |
| 2026-05-09 02:44 | -5.22710 | 105.98213 | 28007 ft | 455 kts | 331° |
| 2026-05-09 02:44 | -5.19948 | 105.96647 | 28418 ft | 458 kts | 331° |
| 2026-05-09 02:44 | -5.17162 | 105.95071 | 28828 ft | 460 kts | 331° |
| 2026-05-09 02:44 | -5.14364 | 105.93492 | 29232 ft | 463 kts | 331° |
| 2026-05-09 02:45 | -5.11548 | 105.91900 | 29627 ft | 466 kts | 331° |
| 2026-05-09 02:45 | -5.08717 | 105.90293 | 30005 ft | 469 kts | 331° |
| 2026-05-09 02:45 | -5.05873 | 105.88672 | 30326 ft | 471 kts | 331° |
| 2026-05-09 02:45 | -5.03014 | 105.87040 | 30648 ft | 473 kts | 331° |
| 2026-05-09 02:46 | -5.00148 | 105.85404 | 30973 ft | 475 kts | 331° |
| 2026-05-09 02:46 | -4.97273 | 105.83762 | 31284 ft | 476 kts | 331° |
| 2026-05-09 02:46 | -4.94402 | 105.82123 | 31707 ft | 475 kts | 332° |
| 2026-05-09 02:46 | -4.91537 | 105.80487 | 32170 ft | 473 kts | 332° |
| 2026-05-09 02:47 | -4.88686 | 105.78859 | 32624 ft | 471 kts | 332° |
| 2026-05-09 02:47 | -4.85843 | 105.77238 | 33087 ft | 469 kts | 332° |
| 2026-05-09 02:47 | -4.83011 | 105.75627 | 33551 ft | 467 kts | 332° |
| 2026-05-09 02:47 | -4.80189 | 105.74023 | 33844 ft | 466 kts | 332° |
| 2026-05-09 02:48 | -4.77412 | 105.72444 | 33906 ft | 460 kts | 332° |
| 2026-05-09 02:48 | -4.71885 | 105.69304 | 33912 ft | 454 kts | 332° |
| 2026-05-09 02:49 | -4.66389 | 105.66182 | 33912 ft | 454 kts | 332° |
| 2026-05-09 02:49 | -4.60893 | 105.63053 | 33910 ft | 454 kts | 332° |
| 2026-05-09 02:50 | -4.55399 | 105.59931 | 33910 ft | 454 kts | 332° |
| 2026-05-09 02:50 | -4.49907 | 105.56806 | 33914 ft | 454 kts | 332° |
| 2026-05-09 02:51 | -4.44409 | 105.53681 | 33917 ft | 454 kts | 332° |
| 2026-05-09 02:51 | -4.38908 | 105.50551 | 33878 ft | 455 kts | 332° |
| 2026-05-09 02:51 | -4.36144 | 105.48979 | 33061 ft | 460 kts | 332° |
| 2026-05-09 02:52 | -4.33372 | 105.47400 | 32529 ft | 457 kts | 332° |
| 2026-05-09 02:52 | -4.30617 | 105.45829 | 31981 ft | 454 kts | 332° |
| 2026-05-09 02:52 | -4.27874 | 105.44267 | 31431 ft | 452 kts | 331° |
| 2026-05-09 02:52 | -4.25143 | 105.42714 | 30873 ft | 450 kts | 331° |
| 2026-05-09 02:53 | -4.22451 | 105.41187 | 30327 ft | 448 kts | 331° |
| 2026-05-09 02:53 | -4.19740 | 105.39647 | 29734 ft | 447 kts | 331° |
| 2026-05-09 02:53 | -4.17040 | 105.38116 | 29165 ft | 444 kts | 330° |
| 2026-05-09 02:53 | -4.14368 | 105.36602 | 28628 ft | 440 kts | 330° |
| 2026-05-09 02:54 | -4.11709 | 105.35096 | 28086 ft | 437 kts | 330° |
| 2026-05-09 02:54 | -4.09076 | 105.33603 | 27563 ft | 433 kts | 330° |
| 2026-05-09 02:54 | -4.06465 | 105.32118 | 27052 ft | 431 kts | 330° |
| 2026-05-09 02:54 | -4.03868 | 105.30640 | 26558 ft | 428 kts | 330° |
| 2026-05-09 02:55 | -4.01282 | 105.29174 | 26056 ft | 426 kts | 330° |
| 2026-05-09 02:55 | -3.98711 | 105.27715 | 25585 ft | 424 kts | 330° |
| 2026-05-09 02:55 | -3.96152 | 105.26263 | 25187 ft | 420 kts | 330° |
| 2026-05-09 02:55 | -3.93646 | 105.24841 | 25099 ft | 408 kts | 330° |
| 2026-05-09 02:56 | -3.91213 | 105.23459 | 25015 ft | 397 kts | 330° |
| 2026-05-09 02:56 | -3.88845 | 105.22119 | 24935 ft | 385 kts | 331° |
| 2026-05-09 02:56 | -3.86534 | 105.20819 | 24860 ft | 380 kts | 331° |
| 2026-05-09 02:56 | -3.84216 | 105.19521 | 24788 ft | 382 kts | 331° |
| 2026-05-09 02:57 | -3.81893 | 105.18220 | 24710 ft | 383 kts | 331° |
| 2026-05-09 02:57 | -3.79568 | 105.16916 | 24634 ft | 382 kts | 331° |
| 2026-05-09 02:57 | -3.77251 | 105.15615 | 24557 ft | 382 kts | 331° |
| 2026-05-09 02:57 | -3.74933 | 105.14312 | 24482 ft | 382 kts | 331° |
| 2026-05-09 02:58 | -3.72616 | 105.13010 | 24409 ft | 382 kts | 331° |
| 2026-05-09 02:58 | -3.70304 | 105.11710 | 24337 ft | 381 kts | 331° |
| 2026-05-09 02:58 | -3.67993 | 105.10409 | 24263 ft | 381 kts | 331° |
| 2026-05-09 02:58 | -3.65677 | 105.09108 | 24188 ft | 381 kts | 331° |
| 2026-05-09 02:59 | -3.63368 | 105.07812 | 24116 ft | 380 kts | 331° |
| 2026-05-09 02:59 | -3.61093 | 105.06538 | 24048 ft | 380 kts | 331° |
| 2026-05-09 02:59 | -3.58753 | 105.05227 | 23973 ft | 380 kts | 331° |
| 2026-05-09 02:59 | -3.56482 | 105.03949 | 23884 ft | 380 kts | 331° |
| 2026-05-09 03:00 | -3.54178 | 105.02651 | 23532 ft | 380 kts | 331° |
| 2026-05-09 03:00 | -3.51871 | 105.01349 | 23053 ft | 379 kts | 330° |
| 2026-05-09 03:00 | -3.49597 | 105.00026 | 22610 ft | 377 kts | 329° |
| 2026-05-09 03:00 | -3.47355 | 104.98671 | 22171 ft | 376 kts | 329° |
| 2026-05-09 03:01 | -3.45131 | 104.97301 | 21717 ft | 375 kts | 328° |
| 2026-05-09 03:01 | -3.42914 | 104.95928 | 21259 ft | 374 kts | 329° |
| 2026-05-09 03:01 | -3.40696 | 104.94560 | 20791 ft | 374 kts | 329° |
| 2026-05-09 03:01 | -3.39229 | 104.93660 | 20481 ft | 374 kts | 329° |
| 2026-05-09 03:02 | -3.37023 | 104.92315 | 20013 ft | 374 kts | 329° |
| 2026-05-09 03:02 | -3.34799 | 104.90963 | 19524 ft | 374 kts | 329° |
| 2026-05-09 03:02 | -3.32572 | 104.89612 | 19044 ft | 375 kts | 329° |
| 2026-05-09 03:02 | -3.30336 | 104.88259 | 18550 ft | 376 kts | 329° |
| 2026-05-09 03:03 | -3.28097 | 104.86901 | 18029 ft | 376 kts | 329° |
| 2026-05-09 03:03 | -3.25862 | 104.85542 | 17501 ft | 375 kts | 329° |
| 2026-05-09 03:03 | -3.23637 | 104.84189 | 17013 ft | 373 kts | 329° |
| 2026-05-09 03:03 | -3.21427 | 104.82843 | 16513 ft | 372 kts | 329° |
| 2026-05-09 03:04 | -3.19218 | 104.81496 | 16024 ft | 370 kts | 329° |
| 2026-05-09 03:04 | -3.17022 | 104.80159 | 15527 ft | 369 kts | 329° |
| 2026-05-09 03:04 | -3.14835 | 104.78833 | 15041 ft | 367 kts | 329° |
| 2026-05-09 03:04 | -3.12653 | 104.77513 | 14549 ft | 366 kts | 329° |
| 2026-05-09 03:05 | -3.10478 | 104.76197 | 14064 ft | 364 kts | 329° |
| 2026-05-09 03:05 | -3.08315 | 104.74885 | 13557 ft | 363 kts | 329° |
| 2026-05-09 03:05 | -3.06167 | 104.73577 | 13064 ft | 360 kts | 329° |
| 2026-05-09 03:05 | -3.04040 | 104.72278 | 12579 ft | 357 kts | 329° |
| 2026-05-09 03:06 | -3.01981 | 104.70909 | 12104 ft | 355 kts | 321° |
| 2026-05-09 03:06 | -3.00292 | 104.69124 | 11634 ft | 353 kts | 306° |
| 2026-05-09 03:06 | -2.99111 | 104.66984 | 11172 ft | 351 kts | 292° |
| 2026-05-09 03:06 | -2.98220 | 104.64724 | 10753 ft | 348 kts | 292° |
| 2026-05-09 03:07 | -2.97322 | 104.62485 | 10284 ft | 346 kts | 292° |
| 2026-05-09 03:07 | -2.96432 | 104.60287 | 10108 ft | 335 kts | 292° |
| 2026-05-09 03:07 | -2.95584 | 104.58164 | 9992 ft | 323 kts | 292° |
| 2026-05-09 03:07 | -2.94775 | 104.56107 | 9870 ft | 312 kts | 292° |
| 2026-05-09 03:08 | -2.93997 | 104.54112 | 9663 ft | 303 kts | 292° |
| 2026-05-09 03:08 | -2.93239 | 104.52162 | 9055 ft | 299 kts | 292° |
| 2026-05-09 03:08 | -2.92489 | 104.50234 | 8448 ft | 297 kts | 292° |
| 2026-05-09 03:08 | -2.91750 | 104.48339 | 7855 ft | 295 kts | 292° |
| 2026-05-09 03:09 | -2.91005 | 104.46436 | 7286 ft | 292 kts | 292° |
| 2026-05-09 03:09 | -2.89968 | 104.44729 | 6723 ft | 286 kts | 318° |
| 2026-05-09 03:09 | -2.88301 | 104.43732 | 6179 ft | 278 kts | 347° |
| 2026-05-09 03:09 | -2.86417 | 104.43648 | 5616 ft | 271 kts | 15° |
| 2026-05-09 03:10 | -2.84651 | 104.44250 | 5034 ft | 268 kts | 23° |
| 2026-05-09 03:10 | -2.82905 | 104.44915 | 4502 ft | 268 kts | 23° |
| 2026-05-09 03:10 | -2.81370 | 104.45842 | 4336 ft | 248 kts | 52° |
| 2026-05-09 03:10 | -2.80733 | 104.47323 | 4228 ft | 227 kts | 88° |
| 2026-05-09 03:11 | -2.80971 | 104.48851 | 4020 ft | 222 kts | 108° |
| 2026-05-09 03:11 | -2.81527 | 104.50287 | 3758 ft | 220 kts | 112° |
| 2026-05-09 03:11 | -2.82123 | 104.51687 | 3486 ft | 217 kts | 112° |
| 2026-05-09 03:11 | -2.82712 | 104.53077 | 3216 ft | 216 kts | 112° |
| 2026-05-09 03:12 | -2.83291 | 104.54452 | 2944 ft | 214 kts | 112° |
| 2026-05-09 03:12 | -2.83865 | 104.55816 | 2669 ft | 212 kts | 112° |
| 2026-05-09 03:12 | -2.84426 | 104.57149 | 2402 ft | 204 kts | 112° |
| 2026-05-09 03:12 | -2.84959 | 104.58414 | 2149 ft | 196 kts | 112° |
| 2026-05-09 03:13 | -2.85961 | 104.60796 | 1695 ft | 179 kts | 111° |
| 2026-05-09 03:13 | -2.86434 | 104.61919 | 1431 ft | 168 kts | 112° |
| 2026-05-09 03:13 | -2.86872 | 104.62959 | 1230 ft | 156 kts | 111° |
| 2026-05-09 03:14 | -2.87280 | 104.63928 | 1034 ft | 147 kts | 112° |
| 2026-05-09 03:14 | -2.87667 | 104.64848 | 850 ft | 142 kts | 111° |
| 2026-05-09 03:14 | -2.88054 | 104.65765 | 667 ft | 144 kts | 110° |
| 2026-05-09 03:14 | -2.88443 | 104.66693 | 519 ft | 147 kts | 110° |
| 2026-05-09 03:15 | -2.88837 | 104.67634 | 307 ft | 146 kts | 109° |
| 2026-05-09 03:15 | -2.89228 | 104.68566 | 56 ft | 145 kts | 110° |
| 2026-05-09 03:15 | -2.89586 | 104.69424 | 13 ft | 113 kts | 112° |
| 2026-05-09 03:15 | -2.89829 | 104.69988 | 21 ft | 66 kts | 113° |
| 2026-05-09 03:16 | -2.89966 | 104.70316 | 22 ft | 34 kts | 112° |
| 2026-05-09 03:16 | -2.90013 | 104.70424 | 21 ft | 12 kts | 111° |
| 2026-05-09 03:16 | -2.89992 | 104.70474 | 21 ft | 5 kts | 21° |
| 2026-05-09 03:16 | -2.89955 | 104.70488 | 24 ft | 6 kts | 21° |
| 2026-05-09 03:17 | -2.89911 | 104.70506 | 23 ft | 8 kts | 23° |
| 2026-05-09 03:17 | -2.89853 | 104.70532 | 24 ft | 10 kts | 24° |
| 2026-05-09 03:17 | -2.89807 | 104.70552 | 29 ft | 7 kts | 24° |
| 2026-05-09 03:17 | -2.89763 | 104.70554 | 26 ft | 7 kts | 319° |
| 2026-05-09 03:18 | -2.89741 | 104.70505 | 30 ft | 6 kts | 292° |
| 2026-05-09 03:18 | -2.89731 | 104.70480 | 29 ft | 4 kts | 292° |
| 2026-05-09 03:18 | -2.89707 | 104.70463 | 28 ft | 5 kts | 13° |
| 2026-05-09 03:18 | -2.89672 | 104.70484 | 28 ft | 4 kts | 23° |
| 2026-05-09 03:19 | -2.89644 | 104.70496 | 26 ft | 1 kts | 25° |
| 2026-05-09 03:19 | -2.89636 | 104.70499 | 29 ft | 0 kts | 23° |